Time;durP1;ratioP1;P1;durP2;ratioP2;P2;SDS_P1;SDS_P2;PMS_P1;PMS_P2;Temp;Humidity;BMP_temperature;BMP_pressure;BME280_temperature;BME280_humidity;BME280_pressure;Samples;Min_cycle;Max_cycle;Signal;HPM_P1;HPM_P2
2023/12/23 00:03:53;;;;;;;0.87;0.60;;;11.30;46.50;;;;;;10431732;28;20221;-78
2023/12/23 00:08:56;;;;;;;1.60;0.80;;;11.40;46.60;;;;;;10437681;28;20320;-78
2023/12/23 00:14:01;;;;;;;1.20;0.60;;;11.40;46.60;;;;;;10435236;28;20227;-78
2023/12/23 00:19:04;;;;;;;0.70;0.67;;;11.30;46.40;;;;;;10435471;28;20612;-78
2023/12/23 00:24:08;;;;;;;0.73;0.73;;;11.40;46.50;;;;;;10431305;28;20222;-78
2023/12/23 00:29:12;;;;;;;0.87;0.70;;;11.40;46.40;;;;;;10432106;28;20772;-78
2023/12/23 00:34:16;;;;;;;1.10;0.70;;;11.40;46.60;;;;;;10431480;28;21248;-79
2023/12/23 00:39:19;;;;;;;1.03;0.70;;;11.40;46.40;;;;;;10438931;28;20745;-79
2023/12/23 00:44:23;;;;;;;0.70;0.70;;;11.40;46.90;;;;;;10434595;28;20245;-79
2023/12/23 00:49:27;;;;;;;0.93;0.70;;;11.40;46.00;;;;;;10433842;28;20315;-78
2023/12/23 00:54:30;;;;;;;1.07;0.80;;;11.30;46.00;;;;;;10435480;28;20239;-79
2023/12/23 00:59:35;;;;;;;0.90;0.80;;;11.40;46.10;;;;;;10435061;28;20235;-79
2023/12/23 01:04:38;;;;;;;0.80;0.80;;;11.40;45.80;;;;;;10432188;28;20235;-79
2023/12/23 01:09:41;;;;;;;1.23;0.70;;;11.40;45.80;;;;;;10442194;28;20279;-79
2023/12/23 01:14:46;;;;;;;1.47;0.90;;;11.40;45.90;;;;;;10434215;28;20790;-79
2023/12/23 01:19:49;;;;;;;1.17;0.70;;;11.30;46.10;;;;;;10443671;28;20228;-80
2023/12/23 01:24:52;;;;;;;1.13;0.73;;;11.30;46.20;;;;;;10446192;28;20739;-79
2023/12/23 01:29:57;;;;;;;0.70;0.70;;;11.20;46.40;;;;;;10442958;28;20240;-79
2023/12/23 01:35:00;;;;;;;3.70;0.90;;;11.10;46.70;;;;;;10443128;28;20579;-79
2023/12/23 01:40:04;;;;;;;1.37;0.80;;;11.00;46.70;;;;;;10447666;28;20236;-79
2023/12/23 01:45:10;;;;;;;0.77;0.70;;;11.00;46.80;;;;;;10442651;28;20265;-79
2023/12/23 01:50:14;;;;;;;1.37;0.80;;;10.90;46.80;;;;;;10435760;28;20260;-79
2023/12/23 01:55:18;;;;;;;1.97;0.80;;;10.90;46.70;;;;;;10446559;28;20259;-79
2023/12/23 02:00:23;;;;;;;2.07;1.00;;;10.90;46.70;;;;;;10441860;28;20261;-79
2023/12/23 02:05:26;;;;;;;0.77;0.70;;;10.90;46.70;;;;;;10444459;28;20287;-79
2023/12/23 02:10:30;;;;;;;0.87;0.70;;;11.00;46.70;;;;;;10442322;28;20239;-79
2023/12/23 02:15:37;;;;;;;1.07;0.80;;;11.00;46.50;;;;;;10445129;28;20976;-79
2023/12/23 02:20:40;;;;;;;0.93;0.80;;;11.00;46.30;;;;;;10445883;28;20257;-78
2023/12/23 02:25:46;;;;;;;1.27;0.70;;;11.00;46.00;;;;;;10446024;28;20225;-78
2023/12/23 02:30:52;;;;;;;3.13;0.70;;;11.00;45.50;;;;;;10443525;28;21137;-79
2023/12/23 02:35:55;;;;;;;0.80;0.80;;;11.10;45.60;;;;;;10442745;28;20317;-78
2023/12/23 02:40:59;;;;;;;0.60;0.60;;;11.10;45.60;;;;;;10438181;28;20236;-78
2023/12/23 02:46:03;;;;;;;0.67;0.67;;;11.10;45.50;;;;;;10444446;28;20229;-79
2023/12/23 02:51:06;;;;;;;2.53;0.60;;;11.10;45.50;;;;;;10445208;28;20358;-79
2023/12/23 02:56:11;;;;;;;1.53;0.80;;;11.10;45.50;;;;;;10445503;28;20244;-78
2023/12/23 03:01:14;;;;;;;1.33;0.70;;;11.20;45.30;;;;;;10440037;28;20221;-78
2023/12/23 03:06:18;;;;;;;1.13;0.70;;;11.10;45.50;;;;;;10435903;28;20252;-78
2023/12/23 03:11:22;;;;;;;2.43;0.87;;;11.10;45.50;;;;;;10441312;28;20235;-79
2023/12/23 03:16:29;;;;;;;1.83;0.73;;;11.10;45.40;;;;;;10444672;28;20243;-79
2023/12/23 03:21:32;;;;;;;1.30;0.70;;;11.10;45.50;;;;;;10440974;28;20733;-79
2023/12/23 03:26:37;;;;;;;0.50;0.50;;;11.10;45.60;;;;;;10442494;28;20240;-79
2023/12/23 03:31:41;;;;;;;0.97;0.60;;;11.00;44.40;;;;;;10442069;28;20241;-79
2023/12/23 03:36:44;;;;;;;1.23;0.50;;;10.80;43.80;;;;;;10440685;28;20243;-79
2023/12/23 03:41:48;;;;;;;0.77;0.50;;;10.50;43.70;;;;;;10444098;28;20236;-79
2023/12/23 03:46:51;;;;;;;0.60;0.60;;;10.20;44.40;;;;;;10435519;28;20324;-79
2023/12/23 03:51:55;;;;;;;0.40;0.40;;;10.00;44.60;;;;;;10442564;28;20233;-80
2023/12/23 03:56:59;;;;;;;0.50;0.50;;;9.80;46.10;;;;;;10436618;28;20243;-79
2023/12/23 04:02:03;;;;;;;0.50;0.50;;;9.60;46.50;;;;;;10438436;28;20307;-79
2023/12/23 04:07:06;;;;;;;0.50;0.50;;;9.60;46.50;;;;;;10440568;28;20634;-80
2023/12/23 04:12:11;;;;;;;1.50;0.70;;;9.60;46.10;;;;;;10441909;28;20237;-79
2023/12/23 04:17:14;;;;;;;0.47;0.47;;;9.70;47.40;;;;;;10438168;28;20253;-79
2023/12/23 04:22:18;;;;;;;1.27;0.70;;;9.70;47.30;;;;;;10437317;28;20244;-79
2023/12/23 04:27:23;;;;;;;1.70;0.80;;;9.70;47.60;;;;;;10438952;28;20333;-79
2023/12/23 04:32:26;;;;;;;2.33;0.90;;;9.80;48.40;;;;;;10440068;28;20232;-79
2023/12/23 04:37:29;;;;;;;2.50;1.20;;;9.90;48.20;;;;;;10436814;28;20302;-79
2023/12/23 04:42:34;;;;;;;1.10;1.00;;;10.00;47.30;;;;;;10436532;28;20762;-80
2023/12/23 04:47:37;;;;;;;1.77;0.93;;;10.10;47.80;;;;;;10437807;28;20233;-79
2023/12/23 04:52:40;;;;;;;1.90;0.83;;;10.10;47.40;;;;;;10436250;28;20233;-79
2023/12/23 04:57:45;;;;;;;1.63;0.83;;;10.20;47.40;;;;;;10438320;28;20240;-79
2023/12/23 05:02:48;;;;;;;1.03;0.80;;;10.20;47.60;;;;;;10430732;28;20320;-79
2023/12/23 05:07:52;;;;;;;1.70;0.80;;;10.30;47.60;;;;;;10441865;28;20229;-79
2023/12/23 05:12:58;;;;;;;1.73;0.70;;;10.30;47.60;;;;;;10429821;28;20256;-79
2023/12/23 05:18:01;;;;;;;2.33;0.70;;;10.30;47.50;;;;;;10434966;28;20228;-79
2023/12/23 05:23:05;;;;;;;0.60;0.60;;;10.40;47.50;;;;;;10439074;28;20233;-80
2023/12/23 05:28:10;;;;;;;0.83;0.73;;;10.40;47.30;;;;;;10433552;28;20236;-79
2023/12/23 05:33:13;;;;;;;0.60;0.60;;;10.40;47.40;;;;;;10436669;28;20256;-79
2023/12/23 05:38:17;;;;;;;0.60;0.60;;;10.40;48.10;;;;;;10429329;28;20241;-79
2023/12/23 05:43:21;;;;;;;0.70;0.70;;;10.40;47.30;;;;;;10441538;28;20240;-79
2023/12/23 05:48:24;;;;;;;0.50;0.50;;;10.40;47.50;;;;;;10441149;28;20239;-79
2023/12/23 05:53:27;;;;;;;0.50;0.50;;;10.40;47.30;;;;;;10442150;28;20237;-79
2023/12/23 05:58:32;;;;;;;0.60;0.40;;;10.40;47.30;;;;;;10436419;28;20589;-79
2023/12/23 06:03:35;;;;;;;0.70;0.50;;;10.30;47.50;;;;;;10445044;28;20837;-79
2023/12/23 06:08:39;;;;;;;0.50;0.50;;;10.30;48.10;;;;;;10442752;28;20241;-79
2023/12/23 06:13:43;;;;;;;0.60;0.60;;;10.30;47.40;;;;;;10446893;28;20232;-80
2023/12/23 06:18:47;;;;;;;0.93;0.83;;;10.30;47.70;;;;;;10439201;28;20256;-79
2023/12/23 06:23:50;;;;;;;1.77;0.60;;;10.30;47.80;;;;;;10446486;28;20232;-80
2023/12/23 06:28:55;;;;;;;0.60;0.60;;;10.20;47.40;;;;;;10439889;28;20308;-80
2023/12/23 06:33:58;;;;;;;0.50;0.50;;;10.20;47.70;;;;;;10448797;28;20228;-80
2023/12/23 06:39:03;;;;;;;0.70;0.70;;;10.20;47.50;;;;;;10445443;28;20641;-79
2023/12/23 06:44:07;;;;;;;0.60;0.60;;;10.20;47.40;;;;;;10439681;28;20232;-79
2023/12/23 06:49:11;;;;;;;0.50;0.50;;;10.20;47.50;;;;;;10441850;28;20233;-79
2023/12/23 06:54:14;;;;;;;0.40;0.40;;;10.20;47.40;;;;;;10438367;28;20238;-79
2023/12/23 06:59:19;;;;;;;0.97;0.70;;;10.20;47.20;;;;;;10437170;28;20320;-79
2023/12/23 07:04:22;;;;;;;0.80;0.60;;;10.20;47.30;;;;;;10440186;28;20241;-79
2023/12/23 07:09:25;;;;;;;1.20;0.60;;;10.20;47.30;;;;;;10445798;28;20229;-79
2023/12/23 07:14:29;;;;;;;0.50;0.50;;;10.20;47.30;;;;;;10433923;28;20235;-80
2023/12/23 07:19:33;;;;;;;0.60;0.60;;;10.20;47.30;;;;;;10441735;28;20401;-79
2023/12/23 07:24:40;;;;;;;0.50;0.50;;;10.20;47.30;;;;;;10444805;28;20287;-79
2023/12/23 07:29:44;;;;;;;0.77;0.50;;;10.20;47.40;;;;;;10441074;28;20726;-79
2023/12/23 07:34:50;;;;;;;0.60;0.60;;;10.20;47.30;;;;;;10439814;28;20233;-79
2023/12/23 07:39:54;;;;;;;0.60;0.60;;;10.20;47.50;;;;;;10444145;28;20283;-79
2023/12/23 07:44:58;;;;;;;0.50;0.50;;;10.20;47.50;;;;;;10445887;28;20229;-81
2023/12/23 07:50:01;;;;;;;0.70;0.70;;;10.20;47.60;;;;;;10434166;28;20225;-79
2023/12/23 07:55:05;;;;;;;0.60;0.60;;;10.10;47.50;;;;;;10442716;28;20221;-80
2023/12/23 08:00:11;;;;;;;0.60;0.60;;;10.10;47.60;;;;;;10445343;28;20229;-80
2023/12/23 08:05:14;;;;;;;0.60;0.60;;;10.10;47.80;;;;;;10437887;28;20230;-80
2023/12/23 08:10:19;;;;;;;0.57;0.57;;;10.10;47.70;;;;;;10444302;28;20320;-79
2023/12/23 08:15:23;;;;;;;0.93;0.80;;;10.10;47.70;;;;;;10438589;28;20316;-80
2023/12/23 08:20:28;;;;;;;0.60;0.60;;;10.10;48.00;;;;;;10433732;28;21045;-81
2023/12/23 08:25:31;;;;;;;0.60;0.60;;;10.10;48.00;;;;;;10442632;28;20285;-81
2023/12/23 08:30:35;;;;;;;1.43;0.60;;;10.10;48.00;;;;;;10438526;28;20324;-81
2023/12/23 08:35:39;;;;;;;0.50;0.50;;;10.10;48.20;;;;;;10441217;28;20225;-80
2023/12/23 08:40:44;;;;;;;0.60;0.60;;;10.10;48.30;;;;;;10439520;28;20649;-79
2023/12/23 08:45:49;;;;;;;0.77;0.50;;;10.10;48.30;;;;;;10431173;28;20267;-79
2023/12/23 08:50:53;;;;;;;0.80;0.80;;;10.00;48.50;;;;;;10437959;28;20404;-79
2023/12/23 08:55:56;;;;;;;0.60;0.60;;;10.00;48.30;;;;;;10437505;28;20548;-76
2023/12/23 09:01:01;;;;;;;0.70;0.70;;;10.10;48.60;;;;;;10447257;28;20715;-80
2023/12/23 09:06:06;;;;;;;0.60;0.60;;;10.10;48.60;;;;;;10435861;28;20237;-80
2023/12/23 09:11:10;;;;;;;0.70;0.70;;;10.10;48.30;;;;;;10439286;28;20244;-80
2023/12/23 09:16:14;;;;;;;0.50;0.50;;;10.20;48.40;;;;;;10431650;28;20261;-80
2023/12/23 09:21:18;;;;;;;1.93;1.00;;;10.20;48.50;;;;;;10435134;28;20734;-79
2023/12/23 09:26:24;;;;;;;0.80;0.80;;;10.20;48.50;;;;;;10442003;28;20287;-80
2023/12/23 09:31:29;;;;;;;0.60;0.60;;;10.20;48.40;;;;;;10433969;28;20232;-81
2023/12/23 09:36:32;;;;;;;0.80;0.60;;;10.20;48.40;;;;;;10434265;28;20232;-80
2023/12/23 09:41:35;;;;;;;0.70;0.70;;;10.20;48.40;;;;;;10438331;28;20657;-80
2023/12/23 09:46:40;;;;;;;1.43;0.63;;;10.20;48.50;;;;;;10449266;28;20661;-80
2023/12/23 09:51:45;;;;;;;0.97;0.70;;;10.20;48.70;;;;;;10451090;28;20231;-79
2023/12/23 09:56:49;;;;;;;1.07;0.80;;;10.30;48.60;;;;;;10440319;28;20236;-78
2023/12/23 10:01:54;;;;;;;0.87;0.60;;;10.30;48.60;;;;;;10442058;28;20231;-79
2023/12/23 10:06:57;;;;;;;0.80;0.60;;;10.30;48.60;;;;;;10448214;28;20236;-79
2023/12/23 10:12:02;;;;;;;0.50;0.50;;;10.30;48.50;;;;;;10439645;28;20769;-78
2023/12/23 10:17:08;;;;;;;0.60;0.60;;;10.40;48.40;;;;;;10438047;28;20229;-78
2023/12/23 10:22:11;;;;;;;0.87;0.60;;;10.50;48.20;;;;;;10441462;28;20225;-78
2023/12/23 10:27:16;;;;;;;0.60;0.60;;;10.50;48.10;;;;;;10434606;28;20317;-78
2023/12/23 10:32:24;;;;;;;0.67;0.60;;;10.50;48.10;;;;;;10440880;28;20778;-78
2023/12/23 10:37:29;;;;;;;0.60;0.60;;;10.50;48.00;;;;;;10446208;28;20673;-78
2023/12/23 10:42:34;;;;;;;0.60;0.60;;;10.50;47.90;;;;;;10445554;28;20703;-78
2023/12/23 10:47:39;;;;;;;0.60;0.60;;;10.50;48.00;;;;;;10447589;28;20240;-78
2023/12/23 10:52:43;;;;;;;0.60;0.60;;;10.50;47.80;;;;;;10436365;28;20241;-78
2023/12/23 10:57:49;;;;;;;0.60;0.60;;;10.50;47.80;;;;;;10448431;28;20232;-77
2023/12/23 11:02:57;;;;;;;0.90;0.90;;;10.50;47.80;;;;;;10454479;28;20232;-77
2023/12/23 11:08:03;;;;;;;0.67;0.67;;;10.50;47.80;;;;;;10453802;28;20232;-77
2023/12/23 11:13:20;;;;;;;0.67;0.50;;;10.50;47.70;;;;;;10452695;28;20229;-77
2023/12/23 11:18:25;;;;;;;0.60;0.60;;;10.60;47.70;;;;;;10452891;28;20268;-77
2023/12/23 11:23:33;;;;;;;0.60;0.60;;;10.60;47.80;;;;;;10452963;28;20229;-77
2023/12/23 11:28:37;;;;;;;0.50;0.50;;;10.60;47.90;;;;;;10444765;28;20369;-78
2023/12/23 11:33:42;;;;;;;0.60;0.60;;;10.60;48.30;;;;;;10444128;28;20236;-77
2023/12/23 11:38:50;;;;;;;0.63;0.63;;;10.60;47.50;;;;;;10411603;28;20312;-78
2023/12/23 11:43:57;;;;;;;0.60;0.60;;;10.60;47.50;;;;;;10445387;28;20225;-78
2023/12/23 11:49:02;;;;;;;0.70;0.70;;;10.60;47.50;;;;;;10451628;28;20243;-77
2023/12/23 11:54:06;;;;;;;0.97;0.80;;;10.60;47.60;;;;;;10451042;28;20260;-77
2023/12/23 11:59:09;;;;;;;0.60;0.60;;;10.60;47.60;;;;;;10451976;28;20607;-77
2023/12/23 12:04:14;;;;;;;0.70;0.70;;;10.60;47.50;;;;;;10450826;28;20267;-76
2023/12/23 12:09:17;;;;;;;0.70;0.60;;;10.60;47.50;;;;;;10451090;28;20241;-77
2023/12/23 12:14:20;;;;;;;0.70;0.70;;;10.60;47.40;;;;;;10451830;28;20254;-77
2023/12/23 12:19:25;;;;;;;0.50;0.50;;;10.60;47.60;;;;;;10451223;28;20590;-77
2023/12/23 12:24:28;;;;;;;0.53;0.53;;;10.60;47.70;;;;;;10450408;28;20224;-77
2023/12/23 12:29:32;;;;;;;1.10;1.00;;;10.60;47.60;;;;;;10450506;28;20741;-76
2023/12/23 12:34:36;;;;;;;2.13;0.97;;;10.60;47.60;;;;;;10450582;28;20231;-77
2023/12/23 12:39:40;;;;;;;0.70;0.70;;;10.60;47.60;;;;;;10450029;28;20232;-77
2023/12/23 12:44:43;;;;;;;0.90;0.80;;;10.60;47.40;;;;;;10449461;28;20261;-77
2023/12/23 12:49:48;;;;;;;0.80;0.80;;;10.60;47.40;;;;;;10450705;28;20257;-77
2023/12/23 12:55:07;;;;;;;0.97;0.70;;;10.60;47.60;;;;;;10451401;28;20241;-77
2023/12/23 13:00:11;;;;;;;0.70;0.70;;;10.60;47.60;;;;;;10450492;28;20237;-78
2023/12/23 13:05:16;;;;;;;0.70;0.70;;;10.60;47.50;;;;;;10447320;28;20233;-78
2023/12/23 13:10:20;;;;;;;1.97;1.80;;;10.60;47.60;;;;;;10445305;28;20228;-78
2023/12/23 13:15:23;;;;;;;0.80;0.80;;;10.60;47.60;;;;;;10453531;28;20248;-78
2023/12/23 13:20:28;;;;;;;1.40;1.00;;;10.50;47.50;;;;;;10458857;28;20332;-78
2023/12/23 13:25:31;;;;;;;0.70;0.70;;;10.50;47.60;;;;;;10458662;28;20237;-78
2023/12/23 13:30:35;;;;;;;0.90;0.70;;;10.50;47.60;;;;;;10458620;28;20323;-78
2023/12/23 13:35:40;;;;;;;0.70;0.70;;;10.50;47.60;;;;;;10458226;28;20236;-78
2023/12/23 13:40:43;;;;;;;0.60;0.60;;;10.50;47.60;;;;;;10456312;28;20303;-77
2023/12/23 13:45:46;;;;;;;0.80;0.80;;;10.50;47.70;;;;;;10455830;28;20641;-78
2023/12/23 13:50:51;;;;;;;0.60;0.60;;;10.40;47.70;;;;;;10456865;28;20719;-78
2023/12/23 13:55:54;;;;;;;0.60;0.60;;;10.50;47.70;;;;;;10457522;28;20802;-78
2023/12/23 14:00:58;;;;;;;0.53;0.53;;;10.50;47.40;;;;;;10456022;28;20229;-78
2023/12/23 14:06:02;;;;;;;0.50;0.50;;;10.50;47.50;;;;;;10453740;28;20225;-78
2023/12/23 14:11:06;;;;;;;0.50;0.50;;;10.50;47.30;;;;;;10457307;28;20297;-77
2023/12/23 14:16:09;;;;;;;0.50;0.50;;;10.60;47.40;;;;;;10439490;28;20246;-78
2023/12/23 14:21:15;;;;;;;0.50;0.50;;;10.60;47.30;;;;;;10426924;28;20233;-77
2023/12/23 14:26:18;;;;;;;0.60;0.60;;;10.60;47.10;;;;;;10456306;28;20322;-78
2023/12/23 14:31:21;;;;;;;0.73;0.60;;;10.60;47.20;;;;;;10456782;28;20260;-78
2023/12/23 14:36:26;;;;;;;0.50;0.50;;;10.60;47.00;;;;;;10456462;28;20252;-78
2023/12/23 14:41:30;;;;;;;0.50;0.50;;;10.60;47.00;;;;;;10456532;28;20312;-78
2023/12/23 14:46:35;;;;;;;0.50;0.50;;;10.60;47.70;;;;;;10456085;28;20224;-78
2023/12/23 14:51:39;;;;;;;2.27;1.20;;;10.60;47.00;;;;;;10455898;28;20228;-78
2023/12/23 14:56:42;;;;;;;0.57;0.57;;;10.60;46.90;;;;;;10455723;28;20235;-78
2023/12/23 15:01:46;;;;;;;0.60;0.60;;;10.60;47.00;;;;;;10456444;28;20331;-78
2023/12/23 15:06:51;;;;;;;0.70;0.70;;;10.60;46.90;;;;;;10455068;28;20228;-77
2023/12/23 15:11:54;;;;;;;0.60;0.60;;;10.60;47.00;;;;;;10455893;28;20256;-78
2023/12/23 15:16:58;;;;;;;0.60;0.60;;;10.60;47.10;;;;;;10455139;28;20225;-77
2023/12/23 15:22:03;;;;;;;0.60;0.60;;;10.50;47.00;;;;;;10455302;28;20324;-77
2023/12/23 15:27:06;;;;;;;0.70;0.70;;;10.50;47.10;;;;;;10454574;28;20306;-78
2023/12/23 15:32:09;;;;;;;1.00;0.80;;;10.50;47.00;;;;;;10455365;28;20261;-78
2023/12/23 15:37:14;;;;;;;0.53;0.53;;;10.50;47.10;;;;;;10454545;28;20244;-77
2023/12/23 15:42:17;;;;;;;0.70;0.70;;;10.50;47.30;;;;;;10453984;28;20328;-78
2023/12/23 15:47:20;;;;;;;1.23;1.20;;;10.50;47.30;;;;;;10453685;28;20241;-77
2023/12/23 15:52:25;;;;;;;4.03;2.73;;;10.50;47.20;;;;;;10454120;28;20224;-78
2023/12/23 15:57:29;;;;;;;1.00;0.90;;;10.50;47.10;;;;;;10454248;28;20308;-78
2023/12/23 16:02:32;;;;;;;0.70;0.70;;;10.50;47.20;;;;;;10453865;28;20233;-78
2023/12/23 16:07:37;;;;;;;0.70;0.70;;;10.50;47.30;;;;;;10453876;28;20267;-78
2023/12/23 16:12:41;;;;;;;1.20;1.10;;;10.50;47.30;;;;;;10453407;28;20224;-78
2023/12/23 16:17:44;;;;;;;1.03;1.03;;;10.50;47.30;;;;;;10452987;28;20237;-77
2023/12/23 16:22:48;;;;;;;1.00;1.00;;;10.50;47.30;;;;;;10452345;28;20268;-76
2023/12/23 16:27:52;;;;;;;0.77;0.77;;;10.40;47.30;;;;;;10452123;28;20225;-78
2023/12/23 16:32:56;;;;;;;0.80;0.80;;;10.40;47.30;;;;;;10451850;28;20341;-78
2023/12/23 16:38:01;;;;;;;0.70;0.70;;;10.40;47.40;;;;;;10450721;28;20233;-78
2023/12/23 16:43:04;;;;;;;0.80;0.80;;;10.40;47.50;;;;;;10451327;28;20228;-78
2023/12/23 16:48:08;;;;;;;0.60;0.60;;;10.40;47.40;;;;;;10451711;28;20323;-78
2023/12/23 16:53:13;;;;;;;0.70;0.70;;;10.50;47.40;;;;;;10441342;28;20263;-78
2023/12/23 16:58:16;;;;;;;0.80;0.80;;;10.50;47.50;;;;;;10451011;28;20264;-77
2023/12/23 17:03:19;;;;;;;1.07;0.83;;;10.50;47.40;;;;;;10451722;28;20237;-77
2023/12/23 17:08:24;;;;;;;1.60;1.50;;;10.50;47.40;;;;;;10451903;28;20248;-78
2023/12/23 17:13:27;;;;;;;0.70;0.70;;;10.50;47.30;;;;;;10449830;28;20231;-78
2023/12/23 17:18:32;;;;;;;0.60;0.60;;;10.50;48.00;;;;;;10450630;28;20239;-78
2023/12/23 17:23:36;;;;;;;0.60;0.60;;;10.50;47.30;;;;;;10449604;28;20239;-78
2023/12/23 17:28:39;;;;;;;0.80;0.80;;;10.50;47.20;;;;;;10448764;28;20225;-77
2023/12/23 17:33:43;;;;;;;0.90;0.90;;;10.50;47.30;;;;;;10447765;28;20231;-77
2023/12/23 17:38:50;;;;;;;0.90;0.90;;;10.40;47.30;;;;;;10449775;28;20228;-78
2023/12/23 17:43:53;;;;;;;0.63;0.63;;;10.50;47.40;;;;;;10449488;28;20252;-78
2023/12/23 17:48:57;;;;;;;0.80;0.80;;;10.40;47.30;;;;;;10450612;28;20252;-78
2023/12/23 17:54:01;;;;;;;0.60;0.60;;;10.40;47.30;;;;;;10440629;28;20275;-77
2023/12/23 17:59:05;;;;;;;0.60;0.60;;;10.50;47.70;;;;;;10446170;28;20287;-78
2023/12/23 18:04:08;;;;;;;0.93;0.80;;;10.40;47.30;;;;;;10445458;28;20232;-77
2023/12/23 18:09:12;;;;;;;0.60;0.60;;;10.40;47.20;;;;;;10457067;28;20303;-78
2023/12/23 18:14:16;;;;;;;0.70;0.70;;;10.40;47.40;;;;;;10455608;28;20255;-78
2023/12/23 18:19:19;;;;;;;1.10;1.00;;;10.30;47.30;;;;;;10456896;28;20291;-77
2023/12/23 18:24:24;;;;;;;1.33;1.23;;;10.30;47.60;;;;;;10455932;28;20236;-78
2023/12/23 18:29:27;;;;;;;1.17;1.07;;;10.30;47.60;;;;;;10455759;28;20233;-78
2023/12/23 18:34:33;;;;;;;1.00;1.00;;;10.30;47.60;;;;;;10453461;28;20236;-75
2023/12/23 18:39:39;;;;;;;1.20;1.20;;;10.20;47.50;;;;;;10451433;28;20390;-76
2023/12/23 18:44:43;;;;;;;1.07;1.00;;;10.20;47.60;;;;;;10451594;28;20270;-78
2023/12/23 18:49:46;;;;;;;1.60;1.50;;;10.20;47.60;;;;;;10451602;28;20420;-76
2023/12/23 18:54:51;;;;;;;1.00;1.00;;;10.20;47.60;;;;;;10453518;28;20681;-75
2023/12/23 18:59:55;;;;;;;1.30;1.20;;;10.20;47.70;;;;;;10446799;28;20274;-76
2023/12/23 19:05:01;;;;;;;1.00;1.00;;;10.20;47.70;;;;;;10450601;28;20229;-76
2023/12/23 19:10:07;;;;;;;0.77;0.77;;;10.10;47.60;;;;;;10450261;28;20278;-76
2023/12/23 19:15:10;;;;;;;1.37;1.27;;;10.10;47.80;;;;;;10450571;28;20229;-76
2023/12/23 19:20:14;;;;;;;0.77;0.77;;;10.10;47.80;;;;;;10450121;28;20657;-75
2023/12/23 19:25:20;;;;;;;1.00;1.00;;;10.10;47.70;;;;;;10450128;28;20231;-75
2023/12/23 19:30:24;;;;;;;1.10;1.10;;;10.10;47.60;;;;;;10449649;28;20237;-77
2023/12/23 19:35:27;;;;;;;1.10;1.00;;;10.10;47.60;;;;;;10447070;28;20225;-75
2023/12/23 19:40:32;;;;;;;0.60;0.60;;;10.10;47.60;;;;;;10449481;28;20236;-76
2023/12/23 19:45:35;;;;;;;0.83;0.83;;;10.10;47.30;;;;;;10444698;28;20312;-76
2023/12/23 19:50:38;;;;;;;0.83;0.83;;;10.20;47.20;;;;;;10449383;28;20237;-75
2023/12/23 19:55:44;;;;;;;1.30;1.20;;;10.20;47.20;;;;;;10448978;28;20231;-77
2023/12/23 20:00:48;;;;;;;0.70;0.70;;;10.30;46.90;;;;;;10447958;28;20239;-76
2023/12/23 20:05:51;;;;;;;1.33;0.90;;;10.30;46.90;;;;;;10449058;28;20228;-76
2023/12/23 20:10:56;;;;;;;0.60;0.60;;;10.30;46.60;;;;;;10448311;28;20229;-75
2023/12/23 20:16:01;;;;;;;0.60;0.60;;;10.40;46.30;;;;;;10449554;28;20221;-76
2023/12/23 20:21:04;;;;;;;0.70;0.70;;;10.50;46.30;;;;;;10449482;28;20283;-77
2023/12/23 20:26:09;;;;;;;0.83;0.70;;;10.50;46.30;;;;;;10449001;28;20290;-76
2023/12/23 20:31:12;;;;;;;0.70;0.70;;;10.60;46.10;;;;;;10448086;28;20229;-77
2023/12/23 20:36:15;;;;;;;0.70;0.70;;;10.60;46.20;;;;;;10445968;28;20236;-77
2023/12/23 20:41:20;;;;;;;0.63;0.63;;;10.60;45.90;;;;;;10448199;28;20229;-77
2023/12/23 20:46:23;;;;;;;0.60;0.60;;;10.70;45.30;;;;;;10448589;28;20245;-77
2023/12/23 20:51:26;;;;;;;0.60;0.60;;;10.70;46.40;;;;;;10448237;28;20229;-77
2023/12/23 20:56:31;;;;;;;0.60;0.60;;;10.80;45.60;;;;;;10446701;28;20584;-76
2023/12/23 21:01:35;;;;;;;0.60;0.60;;;10.80;45.10;;;;;;10447231;28;20234;-77
2023/12/23 21:06:38;;;;;;;0.63;0.60;;;10.80;45.30;;;;;;10447749;28;20239;-77
2023/12/23 21:11:43;;;;;;;0.70;0.70;;;10.90;45.10;;;;;;10444256;28;20243;-77
2023/12/23 21:16:46;;;;;;;0.50;0.50;;;10.90;44.60;;;;;;10447344;28;20240;-77
2023/12/23 21:21:49;;;;;;;0.60;0.60;;;10.90;44.70;;;;;;10440470;28;20391;-77
2023/12/23 21:26:54;;;;;;;0.60;0.60;;;11.00;44.60;;;;;;10445555;28;20798;-77
2023/12/23 21:31:57;;;;;;;0.63;0.63;;;11.00;44.40;;;;;;10447548;28;20723;-77
2023/12/23 21:37:00;;;;;;;0.60;0.60;;;11.00;44.60;;;;;;10449560;28;20233;-77
2023/12/23 21:42:05;;;;;;;0.97;0.50;;;11.10;44.40;;;;;;10454709;28;20262;-77
2023/12/23 21:47:08;;;;;;;0.67;0.67;;;11.00;44.00;;;;;;10454802;28;20271;-77
2023/12/23 21:52:12;;;;;;;1.00;0.97;;;11.10;44.20;;;;;;10454806;28;20286;-77
2023/12/23 21:57:16;;;;;;;0.80;0.80;;;11.10;44.20;;;;;;10454281;28;20619;-76
2023/12/23 22:02:22;;;;;;;1.33;0.70;;;11.10;44.10;;;;;;10441320;28;20244;-76
2023/12/23 22:07:26;;;;;;;1.17;0.70;;;11.10;44.10;;;;;;10453920;28;20236;-77
2023/12/23 22:12:30;;;;;;;0.60;0.60;;;11.10;44.00;;;;;;10452637;28;20730;-77
2023/12/23 22:17:33;;;;;;;0.60;0.60;;;11.10;43.90;;;;;;10411949;28;20240;-76
2023/12/23 22:22:37;;;;;;;0.60;0.60;;;11.00;43.90;;;;;;10451769;28;20742;-77
2023/12/23 22:27:41;;;;;;;0.50;0.50;;;11.00;43.90;;;;;;10452844;28;20229;-77
2023/12/23 22:32:44;;;;;;;0.90;0.60;;;11.00;43.50;;;;;;10452468;28;20237;-77
2023/12/23 22:37:48;;;;;;;0.70;0.70;;;10.90;43.80;;;;;;10452923;28;20233;-77
2023/12/23 22:42:52;;;;;;;0.70;0.70;;;10.90;43.70;;;;;;10452768;28;20707;-77
2023/12/23 22:47:56;;;;;;;0.60;0.60;;;10.90;43.60;;;;;;10452364;28;20236;-77
2023/12/23 22:52:59;;;;;;;0.60;0.60;;;10.80;43.70;;;;;;10452228;28;20239;-77
2023/12/23 22:58:05;;;;;;;0.60;0.60;;;10.80;43.70;;;;;;10451737;28;20237;-77
2023/12/23 23:03:09;;;;;;;1.13;0.60;;;10.80;43.50;;;;;;10452125;28;20232;-77
2023/12/23 23:08:12;;;;;;;0.70;0.70;;;10.80;43.60;;;;;;10451857;28;20228;-77
2023/12/23 23:13:17;;;;;;;0.60;0.60;;;10.70;43.40;;;;;;10451626;28;20799;-77
2023/12/23 23:18:21;;;;;;;0.50;0.50;;;10.70;43.40;;;;;;10451624;28;20243;-77
2023/12/23 23:23:24;;;;;;;0.70;0.70;;;10.70;43.60;;;;;;10451667;28;20229;-77
2023/12/23 23:28:29;;;;;;;0.50;0.50;;;10.60;43.70;;;;;;10450793;28;20237;-77
2023/12/23 23:33:32;;;;;;;0.60;0.60;;;10.60;43.70;;;;;;10450798;28;20606;-77
2023/12/23 23:38:35;;;;;;;0.50;0.50;;;10.70;43.90;;;;;;10450865;28;20255;-77
2023/12/23 23:43:40;;;;;;;0.57;0.57;;;10.70;43.70;;;;;;10450737;28;20233;-77
2023/12/23 23:48:44;;;;;;;2.00;0.73;;;10.70;43.50;;;;;;10450419;28;20735;-76
2023/12/23 23:53:47;;;;;;;0.67;0.67;;;10.70;43.60;;;;;;10450165;28;20233;-77
2023/12/23 23:58:52;;;;;;;0.70;0.70;;;10.70;43.70;;;;;;10449097;28;20229;-77
